Hartleton, Pennsylvania
Current Conditions -  °F | °C
As of 10:53 AM on Sunday 23 Nov 2014 (Local Time) from KSEG Reporting Station
Clear Clear  
Wind Chill: 45°   Ceiling: Unl
Heat Index: 48°   Visibility: 10mi
Dew Point: 23°   Wind: 6mph
Humidity: 37%   Direction: 150°SSE
Pressure: 30.17"   Gusts: NA
Location:  40.9°N, 77.16°W
Report Text: KSEG 231553Z AUTO 15005KT 10SM CLR 09/M05 A3017 RMK AO2 SLP219 T00891050 $
Loading
Personal Weather Stations






























Interactive Weather Map New forecast layout! Learn more

10-Day Weather Forecast

Advertisements
Track Severe Weather on mobile